createdAt,value
2022-08-01T00:00:37.372Z,99.99
2022-08-01T00:01:37.377Z,99.99
2022-08-01T00:02:37.581Z,99.99
2022-08-01T00:03:37.373Z,99.99
2022-08-01T00:04:37.371Z,99.99
2022-08-01T00:05:37.373Z,99.99
2022-08-01T00:06:37.374Z,99.99
2022-08-01T00:07:37.376Z,99.99
2022-08-01T00:08:37.371Z,99.99
2022-08-01T00:09:37.371Z,99.99
2022-08-01T00:10:37.367Z,99.99
2022-08-01T00:11:37.370Z,99.99
2022-08-01T00:12:37.370Z,99.99
2022-08-01T00:13:37.367Z,99.99
2022-08-01T00:14:37.366Z,99.99
2022-08-01T00:15:37.569Z,99.99
2022-08-01T00:16:37.365Z,99.99
2022-08-01T00:17:37.367Z,99.99
2022-08-01T00:18:37.367Z,99.99
2022-08-01T00:19:37.367Z,99.99
2022-08-01T00:20:37.364Z,99.99
2022-08-01T00:21:37.366Z,99.99
2022-08-01T00:22:37.365Z,99.99
2022-08-01T00:23:37.366Z,99.99
2022-08-01T00:24:37.363Z,99.99
2022-08-01T00:25:37.369Z,99.99
2022-08-01T00:26:37.367Z,99.99
2022-08-01T00:27:37.602Z,99.99
2022-08-01T00:28:37.363Z,99.99
2022-08-01T00:30:11.812Z,99.99
2022-08-01T00:30:37.366Z,99.99
2022-08-01T00:31:37.364Z,99.99
2022-08-01T00:32:37.363Z,99.99
2022-08-01T00:33:37.364Z,99.99
2022-08-01T00:34:37.360Z,99.99
2022-08-01T00:35:37.362Z,99.99
2022-08-01T00:36:37.362Z,99.99
2022-08-01T00:37:37.362Z,99.99
2022-08-01T00:38:37.361Z,99.99
2022-08-01T00:39:37.368Z,99.99
2022-08-01T00:40:37.364Z,99.99
2022-08-01T00:41:37.365Z,99.99
2022-08-01T00:42:42.948Z,99.99
2022-08-01T00:43:37.363Z,99.99
2022-08-01T00:44:37.366Z,99.99
2022-08-01T00:45:37.367Z,99.99
2022-08-01T00:46:37.363Z,99.99
2022-08-01T00:47:37.368Z,99.99
2022-08-01T00:48:37.357Z,99.99
2022-08-01T00:49:37.428Z,99.99
2022-08-01T00:50:37.359Z,99.99
2022-08-01T00:51:37.360Z,99.99
2022-08-01T00:52:37.356Z,99.99
2022-08-01T00:53:51.380Z,99.99
2022-08-01T00:54:37.356Z,99.99
2022-08-01T00:55:37.361Z,99.99
2022-08-01T00:56:37.355Z,99.99
2022-08-01T00:58:01.429Z,99.99
2022-08-01T00:58:37.353Z,99.99
2022-08-01T00:59:37.355Z,99.99
2022-08-01T01:00:52.829Z,99.99
2022-08-01T01:01:39.239Z,99.99
2022-08-01T01:02:37.355Z,99.99
2022-08-01T01:03:57.939Z,99.99
2022-08-01T01:04:37.353Z,99.99
2022-08-01T01:05:37.692Z,99.99
2022-08-01T01:06:37.353Z,99.99
2022-08-01T01:07:37.355Z,99.99
2022-08-01T01:08:37.350Z,99.99
2022-08-01T01:09:37.351Z,99.99
2022-08-01T01:10:37.350Z,99.99
2022-08-01T01:11:37.358Z,99.99
2022-08-01T01:12:39.115Z,99.99
2022-08-01T01:13:50.276Z,99.99
2022-08-01T01:14:37.353Z,99.99
2022-08-01T01:15:37.804Z,99.99
2022-08-01T01:16:37.347Z,99.99
2022-08-01T01:17:50.516Z,99.99
2022-08-01T01:18:37.348Z,99.99
2022-08-01T01:19:37.348Z,99.99
2022-08-01T01:20:37.345Z,99.99
2022-08-01T01:21:37.345Z,99.99
2022-08-01T01:22:37.344Z,99.99
2022-08-01T01:23:37.346Z,99.99
2022-08-01T01:24:37.346Z,99.99
2022-08-01T01:25:37.344Z,99.99
2022-08-01T01:26:37.344Z,99.99
2022-08-01T01:27:37.348Z,99.99
2022-08-01T01:28:37.343Z,99.99
2022-08-01T01:30:00.050Z,99.99
2022-08-01T01:30:37.340Z,99.99
2022-08-01T01:31:37.346Z,99.99
2022-08-01T01:32:37.338Z,99.99
2022-08-01T01:33:37.341Z,99.99
2022-08-01T01:34:37.342Z,99.99
2022-08-01T01:35:37.344Z,99.99
2022-08-01T01:36:37.339Z,99.99
2022-08-01T01:37:37.339Z,99.99
2022-08-01T01:38:37.337Z,99.99
2022-08-01T01:39:37.337Z,99.99
2022-08-01T01:40:37.333Z,99.99
2022-08-01T01:41:37.336Z,99.99
2022-08-01T01:42:37.333Z,99.99
2022-08-01T01:43:37.340Z,99.99
2022-08-01T01:44:37.332Z,99.99
2022-08-01T01:45:37.333Z,99.99
2022-08-01T01:46:37.331Z,99.99
2022-08-01T01:47:37.335Z,99.99
2022-08-01T01:48:37.330Z,99.99
2022-08-01T01:49:37.419Z,99.99
2022-08-01T01:50:37.329Z,99.99
2022-08-01T01:51:37.328Z,99.99
2022-08-01T01:52:37.335Z,99.99
2022-08-01T01:53:37.331Z,99.99
2022-08-01T01:54:37.326Z,99.99
2022-08-01T01:55:49.264Z,99.99
2022-08-01T01:56:37.325Z,99.99
2022-08-01T01:57:37.328Z,99.99
2022-08-01T01:58:37.326Z,99.99
2022-08-01T01:59:37.335Z,99.99
2022-08-01T02:00:37.325Z,99.99
2022-08-01T02:01:58.910Z,99.99
2022-08-01T02:02:37.397Z,99.99
2022-08-01T02:03:37.324Z,99.99
2022-08-01T02:04:37.327Z,99.99
2022-08-01T02:05:37.322Z,99.99
2022-08-01T02:06:37.324Z,99.99
2022-08-01T02:07:37.323Z,99.99
2022-08-01T02:08:37.321Z,99.99
2022-08-01T02:09:37.323Z,99.99
2022-08-01T02:10:37.320Z,99.99
2022-08-01T02:11:37.325Z,99.99
2022-08-01T02:12:37.325Z,99.99
2022-08-01T02:13:37.318Z,99.99
2022-08-01T02:14:37.326Z,99.99
2022-08-01T02:15:37.577Z,99.99
2022-08-01T02:16:37.320Z,99.99
2022-08-01T02:17:37.333Z,99.99
2022-08-01T02:18:37.315Z,99.99
2022-08-01T02:19:38.514Z,99.99
2022-08-01T02:20:37.313Z,99.99
2022-08-01T02:21:37.312Z,99.99
2022-08-01T02:22:37.314Z,99.99
2022-08-01T02:23:37.317Z,99.99
2022-08-01T02:24:37.309Z,99.99
2022-08-01T02:25:37.329Z,99.99
2022-08-01T02:26:37.312Z,99.99
2022-08-01T02:27:37.309Z,99.99
2022-08-01T02:28:37.309Z,99.99
2022-08-01T02:29:37.313Z,99.99
2022-08-01T02:30:37.307Z,99.99
2022-08-01T02:31:37.308Z,99.99
2022-08-01T02:32:37.308Z,99.99
2022-08-01T02:33:37.305Z,99.99
2022-08-01T02:34:37.309Z,99.99
2022-08-01T02:36:30.585Z,99.99
2022-08-01T02:36:37.304Z,99.99
2022-08-01T02:37:37.308Z,99.99
2022-08-01T02:38:37.301Z,99.99
2022-08-01T02:39:37.306Z,99.99
2022-08-01T02:40:37.303Z,99.99
2022-08-01T02:41:37.300Z,99.99
2022-08-01T02:42:37.305Z,99.99
2022-08-01T02:43:37.302Z,99.99
2022-08-01T02:44:37.300Z,99.99
2022-08-01T02:45:37.299Z,99.99
2022-08-01T02:46:37.329Z,99.99
2022-08-01T02:47:37.299Z,99.99
2022-08-01T02:48:37.300Z,99.99
2022-08-01T02:49:37.533Z,99.99
2022-08-01T02:50:37.297Z,99.99
2022-08-01T02:51:37.300Z,99.99
2022-08-01T02:52:37.294Z,99.99
2022-08-01T02:53:39.074Z,99.99
2022-08-01T02:54:37.297Z,99.99
2022-08-01T02:55:37.300Z,99.99
2022-08-01T02:56:37.293Z,99.99
2022-08-01T02:57:47.814Z,99.99
2022-08-01T02:58:37.293Z,99.99
2022-08-01T02:59:37.295Z,99.99
2022-08-01T03:00:37.291Z,99.99
2022-08-01T03:01:37.338Z,99.99
2022-08-01T03:02:37.291Z,99.99
2022-08-01T03:03:37.291Z,99.99
2022-08-01T03:04:37.289Z,99.99
2022-08-01T03:05:37.289Z,99.99
2022-08-01T03:06:37.294Z,99.99
2022-08-01T03:07:39.047Z,99.99
2022-08-01T03:08:37.292Z,99.99
2022-08-01T03:09:37.292Z,99.99
2022-08-01T03:10:37.291Z,99.99
2022-08-01T03:11:37.288Z,99.99
2022-08-01T03:12:37.287Z,99.99
2022-08-01T03:13:37.290Z,99.99
2022-08-01T03:14:37.289Z,99.99
2022-08-01T03:15:37.489Z,99.99
2022-08-01T03:16:37.287Z,99.99
2022-08-01T03:17:37.291Z,99.99
2022-08-01T03:18:37.296Z,99.99
2022-08-01T03:19:37.293Z,99.99
2022-08-01T03:20:37.283Z,99.99
2022-08-01T03:21:37.285Z,99.99
2022-08-01T03:22:37.286Z,99.99
2022-08-01T03:23:38.010Z,99.99
2022-08-01T03:24:37.286Z,99.99
2022-08-01T03:25:37.282Z,99.99
2022-08-01T03:26:37.284Z,99.99
2022-08-01T03:27:37.282Z,99.99
2022-08-01T03:28:37.283Z,99.99
2022-08-01T03:29:37.282Z,99.91
2022-08-01T03:31:37.287Z,99.99
2022-08-01T03:32:37.286Z,99.99
2022-08-01T03:33:37.283Z,99.99
2022-08-01T03:34:37.279Z,99.99
2022-08-01T03:35:37.279Z,99.99
2022-08-01T03:36:37.279Z,99.99
2022-08-01T03:37:37.730Z,99.99
2022-08-01T03:38:37.281Z,99.99
2022-08-01T03:39:37.277Z,99.99
2022-08-01T03:40:37.277Z,99.99
2022-08-01T03:41:37.275Z,99.99
2022-08-01T03:42:37.275Z,99.99
2022-08-01T03:43:37.277Z,99.99
2022-08-01T03:44:37.273Z,99.99
2022-08-01T03:45:37.274Z,99.99
2022-08-01T03:46:37.273Z,99.91
2022-08-01T03:47:41.945Z,99.99
2022-08-01T03:48:37.275Z,99.99
2022-08-01T03:49:37.357Z,99.99
2022-08-01T03:50:37.274Z,99.99
2022-08-01T03:51:37.275Z,99.99
2022-08-01T03:52:37.272Z,99.99
2022-08-01T03:53:37.270Z,99.99
2022-08-01T03:54:37.270Z,99.99
2022-08-01T03:55:37.268Z,99.99
2022-08-01T03:56:37.271Z,99.99
2022-08-01T03:57:37.290Z,99.99
2022-08-01T03:58:37.271Z,99.99
2022-08-01T03:59:37.278Z,99.99
2022-08-01T04:00:37.270Z,99.99
2022-08-01T04:01:37.376Z,99.99
2022-08-01T04:02:37.274Z,99.99
2022-08-01T04:03:41.836Z,99.99
2022-08-01T04:04:37.272Z,99.99
2022-08-01T04:05:37.264Z,99.99
2022-08-01T04:06:37.265Z,99.99
2022-08-01T04:07:37.264Z,99.99
2022-08-01T04:08:37.266Z,99.99
2022-08-01T04:09:37.264Z,99.99
2022-08-01T04:10:37.265Z,99.99
2022-08-01T04:11:37.262Z,99.99
2022-08-01T04:12:37.268Z,99.99
2022-08-01T04:13:38.301Z,99.99
2022-08-01T04:14:37.260Z,99.99
2022-08-01T04:15:37.609Z,99.99
2022-08-01T04:16:37.260Z,99.99
2022-08-01T04:17:37.256Z,99.99
2022-08-01T04:18:37.259Z,99.99
2022-08-01T04:19:37.257Z,99.99
2022-08-01T04:20:37.256Z,99.99
2022-08-01T04:21:37.256Z,99.99
2022-08-01T04:22:37.587Z,99.99
2022-08-01T04:23:37.253Z,99.99
2022-08-01T04:24:37.256Z,99.99
2022-08-01T04:25:37.254Z,99.99
2022-08-01T04:26:37.252Z,99.99
2022-08-01T04:27:48.553Z,99.99
2022-08-01T04:28:37.256Z,99.99
2022-08-01T04:29:37.249Z,99.99
2022-08-01T04:30:37.255Z,99.99
2022-08-01T04:31:37.253Z,99.99
2022-08-01T04:32:37.248Z,99.99
2022-08-01T04:33:37.248Z,99.99
2022-08-01T04:34:37.253Z,99.99
2022-08-01T04:36:02.612Z,99.99
2022-08-01T04:36:37.247Z,99.99
2022-08-01T04:37:37.249Z,99.99
2022-08-01T04:38:37.250Z,99.99
2022-08-01T04:39:50.214Z,99.99
2022-08-01T04:40:37.247Z,99.99
2022-08-01T04:41:37.245Z,99.99
2022-08-01T04:42:37.247Z,99.99
2022-08-01T04:43:37.243Z,99.99
2022-08-01T04:44:37.245Z,99.99
2022-08-01T04:45:37.252Z,99.99
2022-08-01T04:46:37.241Z,99.99
2022-08-01T04:47:37.240Z,99.99
2022-08-01T04:48:37.243Z,99.99
2022-08-01T04:49:48.924Z,99.99
2022-08-01T04:50:37.240Z,99.99
2022-08-01T04:51:37.238Z,99.99
2022-08-01T04:52:37.240Z,99.99
2022-08-01T04:53:37.238Z,99.99
2022-08-01T04:54:37.241Z,99.99
2022-08-01T04:55:37.240Z,99.99
2022-08-01T04:56:37.237Z,99.99
2022-08-01T04:57:37.235Z,99.99
2022-08-01T04:58:37.246Z,99.99
2022-08-01T04:59:37.233Z,99.99
2022-08-01T05:00:37.237Z,99.99
2022-08-01T05:01:37.358Z,99.99
2022-08-01T05:02:37.242Z,99.99
2022-08-01T05:03:39.098Z,99.99
2022-08-01T05:04:37.237Z,99.99
2022-08-01T05:05:37.236Z,99.99
2022-08-01T05:06:37.236Z,99.99
2022-08-01T05:07:45.235Z,99.99
2022-08-01T05:08:37.385Z,99.99
2022-08-01T05:09:37.233Z,99.99
2022-08-01T05:10:37.229Z,99.99
2022-08-01T05:11:37.228Z,99.99
2022-08-01T05:12:37.227Z,99.99
2022-08-01T05:13:37.233Z,99.99
2022-08-01T05:14:37.231Z,99.99
2022-08-01T05:15:37.637Z,99.99
2022-08-01T05:16:37.230Z,99.99
2022-08-01T05:17:37.225Z,99.99
2022-08-01T05:18:37.225Z,99.99
2022-08-01T05:19:37.224Z,99.99
2022-08-01T05:20:37.226Z,99.99
2022-08-01T05:21:37.224Z,99.99
2022-08-01T05:22:37.225Z,99.99
2022-08-01T05:23:43.016Z,99.99
2022-08-01T05:24:37.222Z,99.99
2022-08-01T05:25:57.212Z,99.99
2022-08-01T05:26:37.221Z,99.99
2022-08-01T05:27:37.221Z,99.99
2022-08-01T05:28:37.223Z,99.99
2022-08-01T05:29:41.383Z,99.99
2022-08-01T05:30:37.231Z,99.99
2022-08-01T05:31:37.217Z,99.99
2022-08-01T05:32:37.216Z,99.99
2022-08-01T05:33:37.220Z,99.99
2022-08-01T05:34:37.218Z,99.99
2022-08-01T05:35:48.150Z,99.99
2022-08-01T05:36:37.216Z,99.99
2022-08-01T05:37:37.217Z,99.99
2022-08-01T05:38:37.216Z,99.99
2022-08-01T05:39:37.216Z,99.99
2022-08-01T05:40:37.214Z,99.99
2022-08-01T05:41:37.211Z,99.99
2022-08-01T05:42:37.214Z,99.99
2022-08-01T05:43:37.211Z,99.99
2022-08-01T05:44:37.214Z,99.99
2022-08-01T05:45:37.208Z,99.99
2022-08-01T05:46:37.211Z,99.99
2022-08-01T05:47:37.255Z,99.99
2022-08-01T05:48:37.212Z,99.99
2022-08-01T05:49:37.288Z,99.99
2022-08-01T05:50:37.210Z,99.99
2022-08-01T05:51:37.205Z,99.99
2022-08-01T05:52:37.204Z,99.99
2022-08-01T05:53:37.204Z,99.99
2022-08-01T05:54:37.209Z,99.99
2022-08-01T05:55:37.205Z,99.99
2022-08-01T05:56:37.202Z,99.99
2022-08-01T05:57:37.205Z,99.99
2022-08-01T05:58:37.206Z,99.99
2022-08-01T05:59:37.207Z,99.99
2022-08-01T06:00:37.202Z,99.99
2022-08-01T06:01:37.238Z,99.99
2022-08-01T06:02:37.280Z,99.99
2022-08-01T06:03:37.199Z,99.99
2022-08-01T06:04:37.198Z,99.99
2022-08-01T06:05:37.196Z,99.99
2022-08-01T06:06:37.196Z,99.99
2022-08-01T06:07:38.502Z,99.99
2022-08-01T06:08:37.199Z,99.99
2022-08-01T06:09:37.194Z,99.99
2022-08-01T06:10:37.194Z,99.99
2022-08-01T06:11:37.192Z,99.99
2022-08-01T06:12:37.193Z,99.99
2022-08-01T06:13:44.920Z,99.99
2022-08-01T06:14:37.193Z,99.99
2022-08-01T06:15:37.540Z,99.99
2022-08-01T06:16:37.190Z,99.99
2022-08-01T06:17:37.187Z,99.99
2022-08-01T06:18:37.193Z,99.99
2022-08-01T06:19:37.187Z,99.99
2022-08-01T06:20:37.188Z,99.99
2022-08-01T06:21:37.185Z,99.99
2022-08-01T06:22:37.188Z,99.99
2022-08-01T06:23:37.195Z,99.99
2022-08-01T06:24:37.183Z,99.99
2022-08-01T06:25:37.182Z,99.99
2022-08-01T06:26:37.186Z,99.99
2022-08-01T06:27:37.194Z,99.99
2022-08-01T06:28:37.181Z,99.99
2022-08-01T06:29:37.182Z,99.99
2022-08-01T06:30:37.181Z,99.99
2022-08-01T06:31:37.177Z,99.99
2022-08-01T06:32:37.176Z,99.99
2022-08-01T06:33:37.179Z,99.99
2022-08-01T06:34:37.199Z,99.99
2022-08-01T06:35:37.199Z,99.99
2022-08-01T06:36:37.174Z,99.99
2022-08-01T06:37:37.171Z,99.99
2022-08-01T06:38:37.172Z,99.99
2022-08-01T06:39:37.175Z,99.99
2022-08-01T06:40:37.177Z,99.99
2022-08-01T06:41:37.170Z,99.99
2022-08-01T06:42:37.172Z,99.99
2022-08-01T06:43:37.170Z,99.99
2022-08-01T06:44:37.177Z,99.99
2022-08-01T06:45:37.167Z,99.99
2022-08-01T06:46:37.173Z,99.99
2022-08-01T06:47:37.181Z,99.99
2022-08-01T06:48:37.165Z,99.99
2022-08-01T06:49:37.405Z,99.99
2022-08-01T06:50:37.168Z,99.99
2022-08-01T06:51:37.263Z,99.99
2022-08-01T06:52:37.163Z,99.99
2022-08-01T06:53:37.165Z,99.99
2022-08-01T06:54:37.263Z,99.99
2022-08-01T06:55:37.160Z,99.99
2022-08-01T06:56:37.159Z,99.99
2022-08-01T06:57:37.159Z,99.99
2022-08-01T06:58:37.158Z,99.99
2022-08-01T06:59:37.159Z,99.99
2022-08-01T07:00:37.218Z,99.99
2022-08-01T07:01:37.231Z,99.99
2022-08-01T07:02:37.158Z,99.99
2022-08-01T07:03:52.805Z,99.99
2022-08-01T07:04:37.154Z,99.99
2022-08-01T07:05:37.149Z,99.99
2022-08-01T07:06:37.151Z,99.99
2022-08-01T07:07:37.150Z,99.99
2022-08-01T07:08:37.148Z,99.99
2022-08-01T07:09:37.151Z,99.99
2022-08-01T07:10:37.148Z,99.99
2022-08-01T07:11:37.144Z,99.99
2022-08-01T07:12:37.144Z,99.99
2022-08-01T07:13:45.586Z,99.99
2022-08-01T07:14:37.142Z,99.99
2022-08-01T07:15:37.144Z,99.99
2022-08-01T07:16:37.141Z,99.99
2022-08-01T07:17:37.137Z,99.99
2022-08-01T07:18:37.141Z,99.71
2022-08-01T07:19:38.609Z,99.41
2022-08-01T07:20:51.109Z,99.61
2022-08-01T07:21:40.155Z,99.99
2022-08-01T07:22:37.282Z,99.87
2022-08-01T07:23:37.136Z,99.36
2022-08-01T07:24:37.132Z,99.66
2022-08-01T07:25:37.134Z,98.46
2022-08-01T07:26:37.132Z,98.36
2022-08-01T07:27:37.134Z,98.56
2022-08-01T07:28:37.131Z,97.96
2022-08-01T07:29:37.136Z,97.96
2022-08-01T07:30:37.131Z,98.46
2022-08-01T07:31:37.129Z,98.56
2022-08-01T07:32:37.125Z,97.85
2022-08-01T07:33:47.989Z,98.16
2022-08-01T07:34:37.133Z,97.75
2022-08-01T07:35:37.128Z,98.36
2022-08-01T07:36:37.126Z,98.46
2022-08-01T07:37:48.026Z,98.36
2022-08-01T07:38:37.123Z,98.25
2022-08-01T07:39:37.125Z,97.75
2022-08-01T07:40:37.124Z,98.25
2022-08-01T07:41:52.945Z,98.51
2022-08-01T07:42:37.122Z,98.71
2022-08-01T07:43:37.123Z,98.81
2022-08-01T07:44:37.119Z,98.51
2022-08-01T07:45:37.120Z,98.91
2022-08-01T07:46:37.121Z,98.91
2022-08-01T07:47:37.124Z,98.11
2022-08-01T07:48:37.117Z,98.51
2022-08-01T07:49:40.333Z,98.51
2022-08-01T07:50:37.114Z,98.51
2022-08-01T07:51:37.115Z,99.01
2022-08-01T07:52:37.111Z,98.91
2022-08-01T07:53:37.114Z,98.86
2022-08-01T07:54:37.135Z,98.57
2022-08-01T07:55:37.122Z,98.77
2022-08-01T07:56:37.115Z,98.66
2022-08-01T07:57:37.111Z,98.86
2022-08-01T07:58:37.114Z,98.16
2022-08-01T07:59:37.111Z,97.36
2022-08-01T08:00:37.106Z,97.36
2022-08-01T08:01:37.164Z,96.86
2022-08-01T08:02:37.108Z,97.46
2022-08-01T08:03:37.108Z,96.45
2022-08-01T08:04:37.106Z,96.86
2022-08-01T08:05:58.972Z,96.36
2022-08-01T08:06:37.106Z,96.66
2022-08-01T08:07:37.118Z,95.95
2022-08-01T08:08:37.106Z,95.30
2022-08-01T08:09:38.144Z,95.86
2022-08-01T08:10:37.104Z,95.65
2022-08-01T08:11:37.105Z,95.55
2022-08-01T08:12:37.104Z,95.81
2022-08-01T08:13:37.104Z,96.71
2022-08-01T08:14:37.103Z,95.41
2022-08-01T08:15:37.103Z,95.41
2022-08-01T08:16:37.098Z,96.11
2022-08-01T08:17:37.099Z,95.71
2022-08-01T08:18:37.098Z,95.71
2022-08-01T08:19:38.648Z,95.81
2022-08-01T08:20:37.097Z,96.31
2022-08-01T08:21:37.100Z,93.95
2022-08-01T08:22:37.105Z,94.25
2022-08-01T08:23:42.782Z,94.05
2022-08-01T08:24:37.097Z,94.65
2022-08-01T08:25:37.100Z,95.01
2022-08-01T08:26:37.097Z,95.51
2022-08-01T08:27:37.404Z,95.61
2022-08-01T08:28:37.099Z,95.25
2022-08-01T08:29:37.113Z,93.30
2022-08-01T08:30:37.099Z,94.20
2022-08-01T08:31:52.328Z,94.86
2022-08-01T08:32:37.095Z,94.56
2022-08-01T08:33:37.093Z,93.46
2022-08-01T08:34:37.095Z,93.36
2022-08-01T08:35:40.101Z,93.26
2022-08-01T08:36:37.121Z,91.75
2022-08-01T08:37:39.085Z,92.15
2022-08-01T08:38:37.096Z,93.21
2022-08-01T08:39:42.172Z,93.71
2022-08-01T08:40:37.101Z,93.81
2022-08-01T08:41:38.136Z,94.42
2022-08-01T08:42:37.097Z,94.42
2022-08-01T08:43:37.100Z,94.12
2022-08-01T08:44:37.094Z,94.01
2022-08-01T08:45:58.104Z,94.56
2022-08-01T08:46:37.099Z,94.31
2022-08-01T08:47:37.105Z,95.12
2022-08-01T08:48:37.102Z,94.92
2022-08-01T08:49:37.150Z,95.56
2022-08-01T08:50:37.113Z,95.47
2022-08-01T08:51:37.102Z,95.36
2022-08-01T08:52:37.100Z,95.86
2022-08-01T08:53:37.101Z,95.47
2022-08-01T08:54:37.102Z,94.76
2022-08-01T08:55:55.429Z,94.10
2022-08-01T08:56:37.098Z,94.76
2022-08-01T08:57:37.098Z,95.61
2022-08-01T08:58:37.102Z,94.96
2022-08-01T08:59:37.117Z,94.92
2022-08-01T09:00:37.110Z,94.42
2022-08-01T09:01:37.104Z,94.07
2022-08-01T09:02:37.103Z,93.57
2022-08-01T09:03:37.158Z,92.86
2022-08-01T09:04:37.101Z,92.22
2022-08-01T09:05:38.738Z,91.32
2022-08-01T09:06:37.102Z,91.72
2022-08-01T09:07:37.102Z,89.87
2022-08-01T09:08:37.103Z,88.98
2022-08-01T09:09:37.108Z,90.13
2022-08-01T09:10:37.112Z,89.43
2022-08-01T09:11:37.105Z,89.83
2022-08-01T09:12:37.100Z,88.64
2022-08-01T09:13:37.100Z,87.87
2022-08-01T09:14:37.101Z,88.78
2022-08-01T09:15:37.101Z,88.48
2022-08-01T09:16:37.110Z,89.87
2022-08-01T09:17:37.100Z,90.67
2022-08-01T09:18:37.101Z,89.92
2022-08-01T09:19:39.435Z,91.12
2022-08-01T09:20:37.097Z,91.12
2022-08-01T09:21:37.101Z,91.72
2022-08-01T09:22:37.098Z,90.22
2022-08-01T09:23:37.100Z,90.42
2022-08-01T09:24:37.099Z,90.22
2022-08-01T09:25:47.780Z,90.08
2022-08-01T09:26:37.100Z,91.58
2022-08-01T09:27:37.100Z,90.88
2022-08-01T09:28:37.098Z,90.48
2022-08-01T09:29:40.954Z,89.87
2022-08-01T09:30:37.104Z,90.28
2022-08-01T09:31:38.351Z,88.21
2022-08-01T09:32:37.120Z,90.17
2022-08-01T09:33:37.102Z,90.48
2022-08-01T09:34:37.101Z,88.87
2022-08-01T09:35:43.845Z,89.28
2022-08-01T09:36:37.101Z,88.57
2022-08-01T09:37:37.720Z,89.53
2022-08-01T09:38:37.103Z,89.33
2022-08-01T09:39:37.102Z,90.13
2022-08-01T09:40:37.103Z,87.23
2022-08-01T09:41:37.891Z,87.23
2022-08-01T09:42:37.103Z,86.33
2022-08-01T09:43:37.638Z,88.09
2022-08-01T09:44:42.005Z,87.59
2022-08-01T09:45:41.111Z,86.23
2022-08-01T09:46:37.104Z,85.09
2022-08-01T09:47:37.107Z,85.83
2022-08-01T09:48:37.102Z,87.23
2022-08-01T09:49:50.068Z,88.19
2022-08-01T09:50:37.101Z,85.03
2022-08-01T09:51:59.570Z,85.43
2022-08-01T09:52:37.102Z,85.03
2022-08-01T09:53:38.096Z,86.18
2022-08-01T09:54:37.102Z,87.07
2022-08-01T09:55:37.103Z,87.83
2022-08-01T09:56:37.104Z,87.63
2022-08-01T09:57:37.105Z,85.87
2022-08-01T09:58:37.119Z,86.37
2022-08-01T09:59:57.428Z,86.27
2022-08-01T10:00:45.302Z,86.27
2022-08-01T10:01:38.604Z,86.77
2022-08-01T10:02:37.110Z,85.27
2022-08-01T10:03:37.198Z,86.18
2022-08-01T10:04:37.112Z,87.13
2022-08-01T10:05:37.509Z,87.07
2022-08-01T10:06:37.116Z,86.03
2022-08-01T10:07:43.202Z,86.73
2022-08-01T10:08:37.104Z,88.13
2022-08-01T10:09:40.545Z,88.73
2022-08-01T10:10:37.444Z,88.43
2022-08-01T10:11:37.106Z,86.93
2022-08-01T10:12:37.107Z,85.37
2022-08-01T10:13:37.103Z,86.47
2022-08-01T10:14:37.106Z,88.03
2022-08-01T10:15:38.045Z,86.23
2022-08-01T10:16:37.103Z,87.43
2022-08-01T10:17:49.906Z,88.93
2022-08-01T10:18:37.101Z,87.13
2022-08-01T10:19:37.104Z,86.73
2022-08-01T10:20:37.100Z,87.13
2022-08-01T10:21:49.246Z,85.79
2022-08-01T10:22:37.100Z,85.19
2022-08-01T10:23:39.939Z,84.29
2022-08-01T10:24:37.099Z,82.39
2022-08-01T10:25:43.059Z,84.49
2022-08-01T10:26:37.102Z,84.19
2022-08-01T10:27:39.577Z,83.79
2022-08-01T10:28:39.314Z,84.19
2022-08-01T10:29:46.011Z,85.39
2022-08-01T10:30:37.118Z,85.99
2022-08-01T10:31:37.104Z,84.79
2022-08-01T10:32:39.516Z,86.19
2022-08-01T10:33:50.952Z,83.99
2022-08-01T10:34:37.099Z,82.09
2022-08-01T10:35:47.080Z,83.79
2022-08-01T10:36:37.100Z,84.69
2022-08-01T10:37:52.466Z,84.93
2022-08-01T10:38:37.269Z,85.83
2022-08-01T10:39:37.102Z,84.89
2022-08-01T10:40:37.213Z,84.73
2022-08-01T10:41:37.104Z,84.69
2022-08-01T10:42:37.102Z,84.89
2022-08-01T10:43:37.112Z,84.79
2022-08-01T10:44:37.099Z,83.69
2022-08-01T10:45:37.103Z,82.69
2022-08-01T10:46:37.100Z,84.39
2022-08-01T10:47:50.631Z,85.09
2022-08-01T10:48:37.102Z,84.39
2022-08-01T10:49:37.137Z,83.39
2022-08-01T10:50:37.107Z,83.85
2022-08-01T10:51:51.654Z,82.55
2022-08-01T10:52:39.639Z,83.45
2022-08-01T10:53:42.774Z,83.95
2022-08-01T10:54:37.102Z,84.55
2022-08-01T10:55:37.101Z,81.79
2022-08-01T10:56:37.099Z,84.29
2022-08-01T10:57:37.103Z,85.19
2022-08-01T10:58:42.900Z,85.35
2022-08-01T10:59:50.940Z,83.09
2022-08-01T11:00:37.102Z,82.09
2022-08-01T11:01:37.585Z,82.59
2022-08-01T11:02:37.101Z,83.39
2022-08-01T11:03:55.984Z,81.59
2022-08-01T11:04:37.101Z,82.29
2022-08-01T11:05:37.101Z,81.49
2022-08-01T11:06:37.103Z,82.05
2022-08-01T11:07:37.140Z,82.65
2022-08-01T11:08:37.101Z,80.65
2022-08-01T11:09:38.061Z,80.65
2022-08-01T11:10:37.102Z,83.95
2022-08-01T11:11:37.543Z,81.56
2022-08-01T11:12:37.100Z,82.71
2022-08-01T11:13:37.105Z,82.55
2022-08-01T11:14:55.325Z,81.95
2022-08-01T11:15:37.109Z,79.72
2022-08-01T11:16:37.114Z,80.05
2022-08-01T11:17:37.766Z,81.25
2022-08-01T11:18:37.600Z,80.85
2022-08-01T11:19:37.105Z,80.89
2022-08-01T11:20:41.766Z,80.45
2022-08-01T11:21:57.405Z,82.15
2022-08-01T11:22:37.104Z,82.45
2022-08-01T11:23:37.104Z,79.25
2022-08-01T11:24:37.103Z,80.51
2022-08-01T11:26:05.813Z,80.82
2022-08-01T11:26:37.103Z,80.51
2022-08-01T11:27:37.188Z,81.95
2022-08-01T11:28:40.580Z,82.21
2022-08-01T11:29:37.118Z,81.65
2022-08-01T11:30:37.114Z,79.85
2022-08-01T11:31:38.169Z,78.85
2022-08-01T11:32:58.659Z,80.35
2022-08-01T11:33:37.108Z,80.55
2022-08-01T11:34:37.110Z,80.79
2022-08-01T11:35:37.109Z,78.36
2022-08-01T11:37:03.356Z,78.45
2022-08-01T11:37:37.108Z,78.85
2022-08-01T11:38:37.255Z,77.66
2022-08-01T11:39:38.918Z,78.36
2022-08-01T11:40:37.107Z,80.21
2022-08-01T11:41:39.313Z,77.95
2022-08-01T11:42:37.107Z,76.15
2022-08-01T11:43:37.105Z,78.61
2022-08-01T11:44:37.110Z,77.42
2022-08-01T11:45:37.105Z,77.32
2022-08-01T11:46:37.115Z,77.12
2022-08-01T11:47:37.105Z,79.11
2022-08-01T11:48:37.104Z,76.02
2022-08-01T11:49:37.252Z,76.72
2022-08-01T11:50:37.149Z,78.92
2022-08-01T11:51:37.110Z,75.82
2022-08-01T11:52:37.161Z,75.82
2022-08-01T11:53:37.108Z,75.92
2022-08-01T11:54:37.111Z,74.22
2022-08-01T11:55:37.106Z,75.02
2022-08-01T11:56:40.215Z,74.02
2022-08-01T11:57:37.190Z,76.12
2022-08-01T11:58:37.109Z,73.22
2022-08-01T11:59:38.082Z,74.12
2022-08-01T12:00:37.109Z,75.68
2022-08-01T12:01:37.112Z,73.72
2022-08-01T12:02:37.233Z,74.68
2022-08-01T12:03:37.113Z,74.52
2022-08-01T12:04:37.109Z,75.09
2022-08-01T12:05:37.109Z,74.19
2022-08-01T12:06:37.111Z,73.32
2022-08-01T12:07:37.110Z,73.99
2022-08-01T12:08:37.111Z,74.79
2022-08-01T12:09:37.112Z,73.99
2022-08-01T12:10:37.110Z,75.68
2022-08-01T12:11:37.428Z,73.49
2022-08-01T12:12:37.115Z,75.25
2022-08-01T12:13:37.108Z,73.85
2022-08-01T12:14:37.116Z,75.55
2022-08-01T12:15:37.111Z,75.45
2022-08-01T12:16:37.109Z,76.45
2022-08-01T12:17:37.110Z,75.51
2022-08-01T12:18:37.116Z,74.91
2022-08-01T12:19:37.111Z,74.91
2022-08-01T12:20:38.065Z,73.82
2022-08-01T12:21:37.113Z,73.91
2022-08-01T12:22:37.122Z,71.92
2022-08-01T12:23:37.117Z,72.16
2022-08-01T12:24:37.120Z,72.95
2022-08-01T12:25:37.121Z,75.35
2022-08-01T12:26:37.112Z,75.85
2022-08-01T12:27:37.132Z,74.49
2022-08-01T12:28:37.137Z,76.28
2022-08-01T12:29:37.115Z,77.78
2022-08-01T12:30:37.121Z,78.48
2022-08-01T12:31:37.120Z,79.58
2022-08-01T12:32:37.114Z,78.88
2022-08-01T12:33:37.115Z,78.08
2022-08-01T12:34:37.116Z,78.24
2022-08-01T12:35:37.112Z,76.95
2022-08-01T12:36:37.116Z,77.04
2022-08-01T12:37:37.117Z,76.75
2022-08-01T12:38:37.114Z,76.75
2022-08-01T12:39:38.387Z,76.15
2022-08-01T12:40:38.242Z,75.65
2022-08-01T12:41:37.115Z,75.85
2022-08-01T12:42:37.116Z,76.95
2022-08-01T12:43:37.114Z,75.85
2022-08-01T12:44:37.116Z,76.75
2022-08-01T12:45:37.113Z,74.55
2022-08-01T12:46:39.541Z,75.98
2022-08-01T12:47:37.116Z,77.55
2022-08-01T12:48:37.120Z,76.04
2022-08-01T12:49:37.180Z,77.78
2022-08-01T12:50:37.123Z,77.18
2022-08-01T12:51:37.118Z,76.68
2022-08-01T12:52:37.121Z,76.25
2022-08-01T12:53:40.804Z,75.65